메인 페이지
METAR-TAF:

METAR-TAF

공항 :

삼보앙가 국제공항

삼보앙가, 필리핀

위도: 06-54N, 경도: 122-04E, 고도: 5m

현재 날씨관측

예보는 57분 전, 06:00시(UTC)에 발표되었습니다.
동남동5kt동북동풍과 풍을 오가는
온도 31°C
습도 71%
기압 1009 hPa
시정 10km 이상
고도 1700ft 상공 구름 조금
고도 9000ft 상공 구름 많음

METAR: RPMZ 210600Z 11005KT 070V180 9999 FEW017 BKN090 31/25 Q1009 RESHRA RMK A2980

시각: 14:57 (06:57 UTC)

예보

예보는 1 시간 57분 전, 05:00시(UTC)에 발표되었습니다.
예보 대상 시간: 21일 06시부터 22일 06시까지 (UTC)
동남동6kt
시정 10km 이상
고도 1700ft 상공 구름 조금
고도 9000ft 상공 구름 보통
일시적
21일 06시부터 21일 12시까지 (UTC)
12kt
고도 1600ft 상공 구름 조금, 적란운.
고도 1700ft 상공 구름 보통
고도 9000ft 상공 구름 많음
약한소나기,

TAF: RPMZ 210500Z 2106/2206 12006KT 9999 FEW017 SCT090 TEMPO 2106/2112 26012KT -SHRA FEW016CB SCT017 BKN090

4,000개 이상의 공항 관측 자료 및 예보 (METAR 및 TAF 보고).

지도상에서 검색 가능한 기상관측소가 노란 점과 빨간 점으로 표시되어 있습니다.

기상관측소 명을 보려면 표시 위로 마우스를 이동하세요.

날씨 관측과 예보를 보려면 클릭하세요.

지도 변경 : 확대하려면 엑스 표시가 있는 녹색 버튼, 축소하려면 빼기 표시가 있는 녹색 버튼, 다음 페이지의 지도를 보려면 녹색 화살표를 클릭하세요.


METAR-TAF: